sensor_id;sensor_type;location;lat;lon;timestamp;pressure;altitude;pressure_sealevel;temperature;humidity
38530;BME280;24301;54.332;48.386;2023-03-14T00:01:57;99345.94;;;-3.96;70.10
38530;BME280;24301;54.332;48.386;2023-03-14T00:04:23;99345.94;;;-3.96;70.35
38530;BME280;24301;54.332;48.386;2023-03-14T00:06:49;99342.66;;;-3.94;69.82
38530;BME280;24301;54.332;48.386;2023-03-14T00:09:16;99351.16;;;-3.95;69.68
38530;BME280;24301;54.332;48.386;2023-03-14T00:11:42;99345.88;;;-3.98;69.86
38530;BME280;24301;54.332;48.386;2023-03-14T00:14:08;99351.59;;;-4.04;69.40
38530;BME280;24301;54.332;48.386;2023-03-14T00:16:34;99348.88;;;-4.07;70.05
38530;BME280;24301;54.332;48.386;2023-03-14T00:19:00;99354.88;;;-4.06;69.94
38530;BME280;24301;54.332;48.386;2023-03-14T00:21:26;99358.63;;;-3.99;69.83
38530;BME280;24301;54.332;48.386;2023-03-14T00:23:52;99363.72;;;-4.01;69.80
38530;BME280;24301;54.332;48.386;2023-03-14T00:26:19;99368.91;;;-3.99;69.87
38530;BME280;24301;54.332;48.386;2023-03-14T00:28:46;99356.06;;;-3.99;69.39
38530;BME280;24301;54.332;48.386;2023-03-14T00:31:15;99370.81;;;-3.95;69.55
38530;BME280;24301;54.332;48.386;2023-03-14T00:33:41;99373.25;;;-3.98;69.47
38530;BME280;24301;54.332;48.386;2023-03-14T00:36:10;99377.44;;;-4.00;69.55
38530;BME280;24301;54.332;48.386;2023-03-14T00:38:37;99388.50;;;-4.01;69.22
38530;BME280;24301;54.332;48.386;2023-03-14T00:41:06;99379.75;;;-4.05;69.35
38530;BME280;24301;54.332;48.386;2023-03-14T00:43:32;99377.84;;;-4.09;69.70
38530;BME280;24301;54.332;48.386;2023-03-14T00:45:58;99381.47;;;-4.06;69.75
38530;BME280;24301;54.332;48.386;2023-03-14T00:48:26;99392.59;;;-4.05;69.32
38530;BME280;24301;54.332;48.386;2023-03-14T00:50:52;99390.22;;;-4.02;69.19
38530;BME280;24301;54.332;48.386;2023-03-14T00:53:18;99399.59;;;-4.02;69.20
38530;BME280;24301;54.332;48.386;2023-03-14T00:55:44;99399.59;;;-4.02;69.47
38530;BME280;24301;54.332;48.386;2023-03-14T00:58:12;99407.31;;;-4.02;69.41
38530;BME280;24301;54.332;48.386;2023-03-14T01:00:38;99397.91;;;-4.02;69.62
38530;BME280;24301;54.332;48.386;2023-03-14T01:03:05;99397.03;;;-4.02;69.65
38530;BME280;24301;54.332;48.386;2023-03-14T01:05:31;99409.06;;;-4.01;69.30
38530;BME280;24301;54.332;48.386;2023-03-14T01:07:57;99409.06;;;-4.01;69.54
38530;BME280;24301;54.332;48.386;2023-03-14T01:10:25;99418.47;;;-4.02;69.18
38530;BME280;24301;54.332;48.386;2023-03-14T01:12:51;99417.41;;;-4.06;69.38
38530;BME280;24301;54.332;48.386;2023-03-14T01:15:17;99429.47;;;-4.05;69.13
38530;BME280;24301;54.332;48.386;2023-03-14T01:17:42;99425.84;;;-4.08;69.05
38530;BME280;24301;54.332;48.386;2023-03-14T01:20:11;99442.00;;;-4.11;68.95
38530;BME280;24301;54.332;48.386;2023-03-14T01:22:38;99437.16;;;-4.21;68.84
38530;BME280;24301;54.332;48.386;2023-03-14T01:25:07;99441.44;;;-4.22;69.24
38530;BME280;24301;54.332;48.386;2023-03-14T01:27:33;99434.28;;;-4.27;69.67
38530;BME280;24301;54.332;48.386;2023-03-14T01:29:59;99451.16;;;-4.16;69.30
38530;BME280;24301;54.332;48.386;2023-03-14T01:32:26;99448.59;;;-4.16;69.56
38530;BME280;24301;54.332;48.386;2023-03-14T01:34:52;99454.75;;;-4.12;69.25
38530;BME280;24301;54.332;48.386;2023-03-14T01:37:18;99460.84;;;-4.10;69.49
38530;BME280;24301;54.332;48.386;2023-03-14T01:39:46;99458.88;;;-4.16;68.91
38530;BME280;24301;54.332;48.386;2023-03-14T01:42:13;99454.50;;;-4.17;69.29
38530;BME280;24301;54.332;48.386;2023-03-14T01:47:17;99469.13;;;-4.16;69.20
38530;BME280;24301;54.332;48.386;2023-03-14T01:50:08;99475.03;;;-4.17;69.66
38530;BME280;24301;54.332;48.386;2023-03-14T01:52:42;99481.09;;;-4.16;69.57
38530;BME280;24301;54.332;48.386;2023-03-14T01:55:12;99481.88;;;-4.18;69.59
38530;BME280;24301;54.332;48.386;2023-03-14T01:57:46;99479.06;;;-4.22;69.35
38530;BME280;24301;54.332;48.386;2023-03-14T02:00:17;99490.28;;;-4.20;69.34
38530;BME280;24301;54.332;48.386;2023-03-14T02:03:05;99493.75;;;-4.20;69.79
38530;BME280;24301;54.332;48.386;2023-03-14T02:05:38;99488.47;;;-4.23;69.22
38530;BME280;24301;54.332;48.386;2023-03-14T02:08:15;99496.03;;;-4.26;69.36
38530;BME280;24301;54.332;48.386;2023-03-14T02:10:48;99496.81;;;-4.27;69.62
38530;BME280;24301;54.332;48.386;2023-03-14T02:13:19;99494.06;;;-4.30;69.35
38530;BME280;24301;54.332;48.386;2023-03-14T02:15:46;99495.75;;;-4.30;69.77
38530;BME280;24301;54.332;48.386;2023-03-14T02:18:34;99495.91;;;-4.27;69.92
38530;BME280;24301;54.332;48.386;2023-03-14T02:21:26;99504.53;;;-4.27;69.24
38530;BME280;24301;54.332;48.386;2023-03-14T02:24:17;99512.28;;;-4.25;69.85
38530;BME280;24301;54.332;48.386;2023-03-14T02:27:23;99514.00;;;-4.26;69.67
38530;BME280;24301;54.332;48.386;2023-03-14T02:29:59;99510.38;;;-4.29;69.98
38530;BME280;24301;54.332;48.386;2023-03-14T02:32:29;99508.44;;;-4.34;69.52
38530;BME280;24301;54.332;48.386;2023-03-14T02:34:57;99518.88;;;-4.30;70.10
38530;BME280;24301;54.332;48.386;2023-03-14T02:37:31;99520.53;;;-4.31;70.00
38530;BME280;24301;54.332;48.386;2023-03-14T02:40:00;99515.88;;;-4.38;69.76
38530;BME280;24301;54.332;48.386;2023-03-14T02:42:28;99521.13;;;-4.37;70.34
38530;BME280;24301;54.332;48.386;2023-03-14T02:47:30;99521.75;;;-4.41;70.18
38530;BME280;24301;54.332;48.386;2023-03-14T02:50:04;99522.38;;;-4.45;69.96
38530;BME280;24301;54.332;48.386;2023-03-14T02:52:32;99528.78;;;-4.53;70.40
38530;BME280;24301;54.332;48.386;2023-03-14T02:54:57;99538.88;;;-4.56;70.32
38530;BME280;24301;54.332;48.386;2023-03-14T02:57:24;99537.03;;;-4.59;70.88
38530;BME280;24301;54.332;48.386;2023-03-14T02:59:50;99543.13;;;-4.57;70.91
38530;BME280;24301;54.332;48.386;2023-03-14T03:02:18;99548.25;;;-4.57;70.87
38530;BME280;24301;54.332;48.386;2023-03-14T03:04:44;99549.31;;;-4.53;70.90
38530;BME280;24301;54.332;48.386;2023-03-14T03:07:10;99554.34;;;-4.40;71.31
38530;BME280;24301;54.332;48.386;2023-03-14T03:09:36;99559.16;;;-4.29;70.98
38530;BME280;24301;54.332;48.386;2023-03-14T03:12:02;99559.03;;;-3.99;71.02
38530;BME280;24301;54.332;48.386;2023-03-14T03:14:29;99552.75;;;-3.55;70.84
38530;BME280;24301;54.332;48.386;2023-03-14T03:16:58;99570.88;;;-3.00;70.18
38530;BME280;24301;54.332;48.386;2023-03-14T03:19:24;99577.78;;;-2.45;69.31
38530;BME280;24301;54.332;48.386;2023-03-14T03:21:50;99583.59;;;-1.93;68.16
38530;BME280;24301;54.332;48.386;2023-03-14T03:24:16;99577.16;;;-1.44;67.27
38530;BME280;24301;54.332;48.386;2023-03-14T03:26:41;99578.25;;;-1.18;65.71
38530;BME280;24301;54.332;48.386;2023-03-14T03:29:09;99581.38;;;-1.05;65.15
38530;BME280;24301;54.332;48.386;2023-03-14T03:31:37;99580.97;;;-0.72;64.11
38530;BME280;24301;54.332;48.386;2023-03-14T03:34:03;99587.47;;;0.08;63.74
38530;BME280;24301;54.332;48.386;2023-03-14T03:36:29;99588.53;;;0.86;62.78
38530;BME280;24301;54.332;48.386;2023-03-14T03:38:57;99588.19;;;1.56;60.65
38530;BME280;24301;54.332;48.386;2023-03-14T03:41:23;99592.47;;;2.42;59.58
38530;BME280;24301;54.332;48.386;2023-03-14T03:43:50;99598.13;;;3.27;57.70
38530;BME280;24301;54.332;48.386;2023-03-14T03:46:16;99600.34;;;3.85;55.69
38530;BME280;24301;54.332;48.386;2023-03-14T03:48:43;99596.25;;;4.36;54.36
38530;BME280;24301;54.332;48.386;2023-03-14T03:51:15;99602.66;;;4.54;52.07
38530;BME280;24301;54.332;48.386;2023-03-14T03:53:42;99613.03;;;4.97;52.22
38530;BME280;24301;54.332;48.386;2023-03-14T03:56:10;99612.72;;;5.86;50.60
38530;BME280;24301;54.332;48.386;2023-03-14T03:58:37;99610.03;;;6.43;48.77
38530;BME280;24301;54.332;48.386;2023-03-14T04:01:05;99622.56;;;6.70;47.09
38530;BME280;24301;54.332;48.386;2023-03-14T04:03:32;99624.94;;;7.35;46.47
38530;BME280;24301;54.332;48.386;2023-03-14T04:06:04;99620.13;;;7.86;44.44
38530;BME280;24301;54.332;48.386;2023-03-14T04:08:32;99623.94;;;8.49;44.27
38530;BME280;24301;54.332;48.386;2023-03-14T04:11:00;99620.59;;;8.90;42.13
38530;BME280;24301;54.332;48.386;2023-03-14T04:13:44;99623.28;;;9.46;41.86
38530;BME280;24301;54.332;48.386;2023-03-14T04:16:17;99625.94;;;9.63;38.07
38530;BME280;24301;54.332;48.386;2023-03-14T04:18:44;99634.63;;;9.95;39.37
38530;BME280;24301;54.332;48.386;2023-03-14T04:21:10;99640.66;;;10.53;38.74
38530;BME280;24301;54.332;48.386;2023-03-14T04:23:45;99651.84;;;10.92;37.81
38530;BME280;24301;54.332;48.386;2023-03-14T04:26:11;99642.91;;;11.23;37.10
38530;BME280;24301;54.332;48.386;2023-03-14T04:28:37;99643.41;;;11.70;36.22
38530;BME280;24301;54.332;48.386;2023-03-14T04:31:09;99645.97;;;11.79;33.47
38530;BME280;24301;54.332;48.386;2023-03-14T04:33:35;99655.56;;;11.88;34.86
38530;BME280;24301;54.332;48.386;2023-03-14T04:36:04;99665.94;;;12.07;34.51
38530;BME280;24301;54.332;48.386;2023-03-14T04:38:30;99665.44;;;12.55;33.77
38530;BME280;24301;54.332;48.386;2023-03-14T04:40:56;99670.25;;;12.92;32.89
38530;BME280;24301;54.332;48.386;2023-03-14T04:43:28;99659.97;;;13.33;32.20
38530;BME280;24301;54.332;48.386;2023-03-14T04:46:00;99677.22;;;13.61;31.56
38530;BME280;24301;54.332;48.386;2023-03-14T04:48:26;99671.13;;;13.56;31.02
38530;BME280;24301;54.332;48.386;2023-03-14T04:50:53;99679.97;;;13.55;31.17
38530;BME280;24301;54.332;48.386;2023-03-14T04:53:19;99676.50;;;14.04;30.32
38530;BME280;24301;54.332;48.386;2023-03-14T04:55:52;99686.09;;;14.57;29.58
38530;BME280;24301;54.332;48.386;2023-03-14T04:58:19;99690.50;;;15.01;29.26
38530;BME280;24301;54.332;48.386;2023-03-14T05:00:47;99690.19;;;15.92;28.41
38530;BME280;24301;54.332;48.386;2023-03-14T05:03:36;99688.22;;;16.66;27.42
38530;BME280;24301;54.332;48.386;2023-03-14T05:06:12;99691.81;;;17.26;27.04
38530;BME280;24301;54.332;48.386;2023-03-14T05:08:41;99708.03;;;18.02;26.27
38530;BME280;24301;54.332;48.386;2023-03-14T05:11:13;99723.78;;;18.08;25.19
38530;BME280;24301;54.332;48.386;2023-03-14T05:14:14;99720.88;;;17.87;24.61
38530;BME280;24301;54.332;48.386;2023-03-14T05:16:56;99731.44;;;17.62;25.01
38530;BME280;24301;54.332;48.386;2023-03-14T05:19:48;99742.59;;;17.73;25.08
38530;BME280;24301;54.332;48.386;2023-03-14T05:22:34;99746.50;;;18.44;24.50
38530;BME280;24301;54.332;48.386;2023-03-14T05:25:00;99761.72;;;18.65;23.48
38530;BME280;24301;54.332;48.386;2023-03-14T05:28:04;99766.22;;;18.63;23.54
38530;BME280;24301;54.332;48.386;2023-03-14T05:30:56;99775.72;;;18.96;23.13
38530;BME280;24301;54.332;48.386;2023-03-14T05:33:42;99777.19;;;19.29;22.85
38530;BME280;24301;54.332;48.386;2023-03-14T05:36:26;99770.56;;;19.63;22.31
38530;BME280;24301;54.332;48.386;2023-03-14T05:39:06;99772.19;;;19.67;22.00
38530;BME280;24301;54.332;48.386;2023-03-14T05:41:58;99776.44;;;19.71;21.49
38530;BME280;24301;54.332;48.386;2023-03-14T05:44:50;99782.09;;;20.30;21.74
38530;BME280;24301;54.332;48.386;2023-03-14T05:47:31;99795.66;;;20.67;21.10
38530;BME280;24301;54.332;48.386;2023-03-14T05:50:19;99803.09;;;20.81;20.51
38530;BME280;24301;54.332;48.386;2023-03-14T05:53:15;99797.13;;;20.95;20.57
38530;BME280;24301;54.332;48.386;2023-03-14T05:56:12;99801.25;;;21.42;20.31
38530;BME280;24301;54.332;48.386;2023-03-14T05:59:07;99795.78;;;21.05;20.04
38530;BME280;24301;54.332;48.386;2023-03-14T06:02:00;99809.13;;;21.45;19.82
38530;BME280;24301;54.332;48.386;2023-03-14T06:04:29;99801.09;;;22.03;19.09
38530;BME280;24301;54.332;48.386;2023-03-14T06:06:58;99804.53;;;22.42;19.02
38530;BME280;24301;54.332;48.386;2023-03-14T06:09:24;99812.69;;;22.21;18.70
38530;BME280;24301;54.332;48.386;2023-03-14T06:11:52;99811.25;;;22.31;18.70
38530;BME280;24301;54.332;48.386;2023-03-14T06:14:18;99812.97;;;22.69;18.03
38530;BME280;24301;54.332;48.386;2023-03-14T06:16:46;99815.50;;;23.06;17.79
38530;BME280;24301;54.332;48.386;2023-03-14T06:19:16;99819.13;;;23.22;17.55
38530;BME280;24301;54.332;48.386;2023-03-14T06:21:42;99817.50;;;23.36;17.45
38530;BME280;24301;54.332;48.386;2023-03-14T06:24:08;99807.19;;;23.78;17.18
38530;BME280;24301;54.332;48.386;2023-03-14T06:26:39;99814.72;;;24.03;16.90
38530;BME280;24301;54.332;48.386;2023-03-14T06:29:05;99808.09;;;23.61;16.72
38530;BME280;24301;54.332;48.386;2023-03-14T06:31:33;99800.41;;;23.87;16.91
38530;BME280;24301;54.332;48.386;2023-03-14T06:34:02;99800.97;;;24.40;16.60
38530;BME280;24301;54.332;48.386;2023-03-14T06:36:30;99807.25;;;25.29;16.20
38530;BME280;24301;54.332;48.386;2023-03-14T06:38:57;99808.81;;;25.90;15.67
38530;BME280;24301;54.332;48.386;2023-03-14T06:41:24;99799.31;;;25.84;14.91
38530;BME280;24301;54.332;48.386;2023-03-14T06:43:51;99804.75;;;25.97;15.24
38530;BME280;24301;54.332;48.386;2023-03-14T06:46:19;99815.59;;;25.95;14.90
38530;BME280;24301;54.332;48.386;2023-03-14T06:48:44;99828.97;;;25.97;14.73
38530;BME280;24301;54.332;48.386;2023-03-14T06:51:27;99841.34;;;26.95;14.21
38530;BME280;24301;54.332;48.386;2023-03-14T06:53:53;99845.78;;;26.96;14.09
38530;BME280;24301;54.332;48.386;2023-03-14T06:56:22;99855.56;;;27.49;14.52
38530;BME280;24301;54.332;48.386;2023-03-14T06:58:48;99856.78;;;27.95;14.14
38530;BME280;24301;54.332;48.386;2023-03-14T07:01:20;99872.34;;;28.29;13.56
38530;BME280;24301;54.332;48.386;2023-03-14T07:03:47;99869.66;;;28.64;13.31
38530;BME280;24301;54.332;48.386;2023-03-14T07:06:13;99860.22;;;28.59;12.89
38530;BME280;24301;54.332;48.386;2023-03-14T07:08:39;99870.41;;;27.93;13.42
38530;BME280;24301;54.332;48.386;2023-03-14T07:11:05;99863.72;;;27.86;13.46
38530;BME280;24301;54.332;48.386;2023-03-14T07:13:33;99867.94;;;28.15;12.85
38530;BME280;24301;54.332;48.386;2023-03-14T07:16:04;99865.06;;;28.78;12.87
38530;BME280;24301;54.332;48.386;2023-03-14T07:18:30;99872.75;;;28.95;12.69
38530;BME280;24301;54.332;48.386;2023-03-14T07:20:56;99876.41;;;28.83;12.69
38530;BME280;24301;54.332;48.386;2023-03-14T07:23:22;99890.06;;;28.93;12.61
38530;BME280;24301;54.332;48.386;2023-03-14T07:25:51;99893.81;;;29.26;12.42
38530;BME280;24301;54.332;48.386;2023-03-14T07:28:20;99884.56;;;28.70;12.18
38530;BME280;24301;54.332;48.386;2023-03-14T07:30:47;99884.53;;;28.34;12.31
38530;BME280;24301;54.332;48.386;2023-03-14T07:33:19;99872.84;;;27.72;12.35
38530;BME280;24301;54.332;48.386;2023-03-14T07:35:49;99869.19;;;27.47;12.01
38530;BME280;24301;54.332;48.386;2023-03-14T07:38:16;99867.25;;;26.98;12.36
38530;BME280;24301;54.332;48.386;2023-03-14T07:41:02;99873.25;;;26.48;13.07
38530;BME280;24301;54.332;48.386;2023-03-14T07:43:30;99875.34;;;26.30;13.20
38530;BME280;24301;54.332;48.386;2023-03-14T07:45:59;99880.94;;;26.94;12.95
38530;BME280;24301;54.332;48.386;2023-03-14T07:48:26;99865.31;;;26.72;12.50
38530;BME280;24301;54.332;48.386;2023-03-14T07:50:53;99879.63;;;26.47;12.52
38530;BME280;24301;54.332;48.386;2023-03-14T07:53:20;99859.38;;;26.27;12.87
38530;BME280;24301;54.332;48.386;2023-03-14T07:55:46;99867.41;;;26.41;12.53
38530;BME280;24301;54.332;48.386;2023-03-14T07:58:13;99872.72;;;26.43;13.14
38530;BME280;24301;54.332;48.386;2023-03-14T08:00:39;99874.47;;;26.57;12.80
38530;BME280;24301;54.332;48.386;2023-03-14T08:03:05;99882.53;;;25.87;12.91
38530;BME280;24301;54.332;48.386;2023-03-14T08:05:35;99854.81;;;25.58;12.92
38530;BME280;24301;54.332;48.386;2023-03-14T08:08:01;99886.91;;;24.71;13.33
38530;BME280;24301;54.332;48.386;2023-03-14T08:10:27;99885.91;;;24.57;13.60
38530;BME280;24301;54.332;48.386;2023-03-14T08:12:55;99886.34;;;24.49;13.60
38530;BME280;24301;54.332;48.386;2023-03-14T08:15:22;99886.22;;;24.67;13.43
38530;BME280;24301;54.332;48.386;2023-03-14T08:17:49;99879.28;;;24.79;13.43
38530;BME280;24301;54.332;48.386;2023-03-14T08:20:17;99888.13;;;23.52;14.09
38530;BME280;24301;54.332;48.386;2023-03-14T08:22:43;99880.66;;;21.59;15.37
38530;BME280;24301;54.332;48.386;2023-03-14T08:25:09;99876.03;;;18.95;17.15
38530;BME280;24301;54.332;48.386;2023-03-14T08:27:36;99870.72;;;16.19;18.65
38530;BME280;24301;54.332;48.386;2023-03-14T08:30:05;99868.38;;;13.50;20.72
38530;BME280;24301;54.332;48.386;2023-03-14T08:32:31;99881.31;;;11.63;21.78
38530;BME280;24301;54.332;48.386;2023-03-14T08:34:57;99860.56;;;10.60;22.72
38530;BME280;24301;54.332;48.386;2023-03-14T08:37:23;99857.84;;;9.95;23.70
38530;BME280;24301;54.332;48.386;2023-03-14T08:39:51;99872.69;;;9.74;24.12
38530;BME280;24301;54.332;48.386;2023-03-14T08:42:17;99866.47;;;9.46;25.10
38530;BME280;24301;54.332;48.386;2023-03-14T08:44:43;99862.00;;;9.25;25.15
38530;BME280;24301;54.332;48.386;2023-03-14T08:47:09;99868.00;;;9.03;25.83
38530;BME280;24301;54.332;48.386;2023-03-14T08:49:35;99852.00;;;8.61;26.18
38530;BME280;24301;54.332;48.386;2023-03-14T08:52:04;99854.06;;;7.98;28.07
38530;BME280;24301;54.332;48.386;2023-03-14T08:54:31;99854.59;;;7.66;28.85
38530;BME280;24301;54.332;48.386;2023-03-14T08:56:57;99839.34;;;7.29;29.67
38530;BME280;24301;54.332;48.386;2023-03-14T08:59:23;99841.41;;;6.88;30.65
38530;BME280;24301;54.332;48.386;2023-03-14T09:01:50;99834.81;;;6.54;31.39
38530;BME280;24301;54.332;48.386;2023-03-14T09:04:16;99834.41;;;6.27;31.39
38530;BME280;24301;54.332;48.386;2023-03-14T09:06:42;99835.09;;;6.17;31.70
38530;BME280;24301;54.332;48.386;2023-03-14T09:09:08;99833.06;;;6.00;32.76
38530;BME280;24301;54.332;48.386;2023-03-14T09:11:34;99835.28;;;5.79;32.88
38530;BME280;24301;54.332;48.386;2023-03-14T09:14:00;99829.47;;;5.47;33.78
38530;BME280;24301;54.332;48.386;2023-03-14T09:16:26;99816.97;;;5.31;34.85
38530;BME280;24301;54.332;48.386;2023-03-14T09:18:52;99829.59;;;5.11;34.64
38530;BME280;24301;54.332;48.386;2023-03-14T09:21:28;99832.16;;;5.09;35.70
38530;BME280;24301;54.332;48.386;2023-03-14T09:23:54;99829.66;;;5.14;35.46
38530;BME280;24301;54.332;48.386;2023-03-14T09:26:20;99835.63;;;5.08;35.35
38530;BME280;24301;54.332;48.386;2023-03-14T09:28:45;99824.16;;;5.00;36.21
38530;BME280;24301;54.332;48.386;2023-03-14T09:31:12;99823.03;;;4.87;36.23
38530;BME280;24301;54.332;48.386;2023-03-14T09:33:38;99812.41;;;4.79;36.04
38530;BME280;24301;54.332;48.386;2023-03-14T09:36:04;99828.84;;;4.75;35.87
38530;BME280;24301;54.332;48.386;2023-03-14T09:38:31;99834.97;;;4.77;36.21
38530;BME280;24301;54.332;48.386;2023-03-14T09:41:00;99834.81;;;4.71;36.37
38530;BME280;24301;54.332;48.386;2023-03-14T09:43:30;99821.22;;;4.84;36.10
38530;BME280;24301;54.332;48.386;2023-03-14T09:45:58;99823.25;;;4.98;35.43
38530;BME280;24301;54.332;48.386;2023-03-14T09:48:29;99825.00;;;4.99;36.13
38530;BME280;24301;54.332;48.386;2023-03-14T09:50:58;99838.94;;;5.01;36.02
38530;BME280;24301;54.332;48.386;2023-03-14T09:53:54;99835.44;;;4.99;37.05
38530;BME280;24301;54.332;48.386;2023-03-14T09:56:28;99831.69;;;4.87;36.32
38530;BME280;24301;54.332;48.386;2023-03-14T09:58:59;99835.03;;;4.80;36.73
38530;BME280;24301;54.332;48.386;2023-03-14T10:01:28;99825.69;;;4.90;36.51
38530;BME280;24301;54.332;48.386;2023-03-14T10:03:56;99817.88;;;4.92;35.76
38530;BME280;24301;54.332;48.386;2023-03-14T10:06:26;99814.31;;;4.86;35.87
38530;BME280;24301;54.332;48.386;2023-03-14T10:08:54;99801.03;;;4.75;35.42
38530;BME280;24301;54.332;48.386;2023-03-14T10:11:20;99810.34;;;4.64;35.54
38530;BME280;24301;54.332;48.386;2023-03-14T10:16:32;99801.25;;;4.45;37.30
38530;BME280;24301;54.332;48.386;2023-03-14T10:19:06;99797.81;;;4.46;37.51
38530;BME280;24301;54.332;48.386;2023-03-14T10:21:38;99804.69;;;4.44;37.52
38530;BME280;24301;54.332;48.386;2023-03-14T10:24:26;99798.53;;;4.42;38.83
38530;BME280;24301;54.332;48.386;2023-03-14T10:26:54;99808.22;;;4.46;38.05
38530;BME280;24301;54.332;48.386;2023-03-14T10:29:20;99798.53;;;4.42;37.67
38530;BME280;24301;54.332;48.386;2023-03-14T10:32:04;99795.81;;;4.36;38.48
38530;BME280;24301;54.332;48.386;2023-03-14T10:34:35;99771.97;;;4.17;38.49
38530;BME280;24301;54.332;48.386;2023-03-14T10:37:18;99794.22;;;4.06;38.28
38530;BME280;24301;54.332;48.386;2023-03-14T10:39:55;99810.38;;;3.92;38.80
38530;BME280;24301;54.332;48.386;2023-03-14T10:42:26;99798.31;;;3.96;38.26
38530;BME280;24301;54.332;48.386;2023-03-14T10:44:59;99785.47;;;4.02;38.54
38530;BME280;24301;54.332;48.386;2023-03-14T10:47:26;99788.31;;;4.13;38.37
38530;BME280;24301;54.332;48.386;2023-03-14T10:49:54;99789.22;;;4.13;38.49
38530;BME280;24301;54.332;48.386;2023-03-14T10:52:28;99794.63;;;4.21;37.72
38530;BME280;24301;54.332;48.386;2023-03-14T10:54:58;99795.75;;;4.32;38.06
38530;BME280;24301;54.332;48.386;2023-03-14T10:57:25;99785.50;;;4.40;38.23
38530;BME280;24301;54.332;48.386;2023-03-14T10:59:52;99804.84;;;4.50;38.22
38530;BME280;24301;54.332;48.386;2023-03-14T11:02:44;99806.91;;;4.67;38.46
38530;BME280;24301;54.332;48.386;2023-03-14T11:05:28;99789.69;;;4.72;37.57
38530;BME280;24301;54.332;48.386;2023-03-14T11:08:11;99808.72;;;4.68;37.97
38530;BME280;24301;54.332;48.386;2023-03-14T11:10:39;99811.56;;;4.80;38.03
38530;BME280;24301;54.332;48.386;2023-03-14T11:16:05;99802.25;;;4.90;37.94
38530;BME280;24301;54.332;48.386;2023-03-14T11:18:59;99822.47;;;5.03;37.02
38530;BME280;24301;54.332;48.386;2023-03-14T11:21:52;99801.00;;;5.14;36.81
38530;BME280;24301;54.332;48.386;2023-03-14T11:33:04;99812.13;;;4.67;37.01
38530;BME280;24301;54.332;48.386;2023-03-14T11:40:57;99806.59;;;4.51;36.42
38530;BME280;24301;54.332;48.386;2023-03-14T11:46:05;99790.78;;;4.83;36.30
38530;BME280;24301;54.332;48.386;2023-03-14T11:48:45;99801.50;;;4.96;36.29
38530;BME280;24301;54.332;48.386;2023-03-14T11:51:24;99790.22;;;4.97;36.21
38530;BME280;24301;54.332;48.386;2023-03-14T11:54:04;99806.09;;;5.09;36.07
38530;BME280;24301;54.332;48.386;2023-03-14T11:56:44;99790.41;;;5.06;35.34
38530;BME280;24301;54.332;48.386;2023-03-14T11:59:23;99783.50;;;5.08;35.37
38530;BME280;24301;54.332;48.386;2023-03-14T12:01:57;99794.03;;;5.13;35.42
38530;BME280;24301;54.332;48.386;2023-03-14T12:07:03;99784.94;;;5.38;34.16
38530;BME280;24301;54.332;48.386;2023-03-14T12:09:32;99776.38;;;5.44;34.69
38530;BME280;24301;54.332;48.386;2023-03-14T12:12:02;99778.03;;;5.39;34.15
38530;BME280;24301;54.332;48.386;2023-03-14T12:14:32;99790.84;;;5.28;34.44
38530;BME280;24301;54.332;48.386;2023-03-14T12:17:20;99791.38;;;5.10;33.86
38530;BME280;24301;54.332;48.386;2023-03-14T12:19:46;99788.59;;;5.02;34.48
38530;BME280;24301;54.332;48.386;2023-03-14T12:24:49;99775.06;;;4.79;34.73
38530;BME280;24301;54.332;48.386;2023-03-14T12:35:43;99743.53;;;3.90;36.40
38530;BME280;24301;54.332;48.386;2023-03-14T12:38:14;99749.47;;;3.84;36.80
38530;BME280;24301;54.332;48.386;2023-03-14T12:40:58;99756.69;;;3.96;36.65
38530;BME280;24301;54.332;48.386;2023-03-14T12:43:31;99756.00;;;4.03;36.88
38530;BME280;24301;54.332;48.386;2023-03-14T12:49:05;99749.84;;;3.99;36.55
38530;BME280;24301;54.332;48.386;2023-03-14T12:51:38;99743.75;;;3.99;36.20
38530;BME280;24301;54.332;48.386;2023-03-14T12:59:58;99754.22;;;4.02;36.50
38530;BME280;24301;54.332;48.386;2023-03-14T13:02:36;99767.09;;;3.96;36.60
38530;BME280;24301;54.332;48.386;2023-03-14T13:15:33;99750.31;;;3.49;37.05
38530;BME280;24301;54.332;48.386;2023-03-14T13:18:11;99773.00;;;3.55;37.63
38530;BME280;24301;54.332;48.386;2023-03-14T13:20:44;99737.22;;;3.44;37.40
38530;BME280;24301;54.332;48.386;2023-03-14T13:23:28;99755.56;;;3.51;37.57
38530;BME280;24301;54.332;48.386;2023-03-14T13:25:54;99748.75;;;3.56;37.27
38530;BME280;24301;54.332;48.386;2023-03-14T13:28:20;99759.94;;;3.52;37.06
38530;BME280;24301;54.332;48.386;2023-03-14T13:30:48;99739.75;;;3.41;37.13
38530;BME280;24301;54.332;48.386;2023-03-14T13:33:19;99727.41;;;3.34;37.32
38530;BME280;24301;54.332;48.386;2023-03-14T13:36:04;99717.59;;;3.24;37.76
38530;BME280;24301;54.332;48.386;2023-03-14T13:38:33;99753.84;;;3.19;37.79
38530;BME280;24301;54.332;48.386;2023-03-14T13:41:03;99741.63;;;3.15;38.13
38530;BME280;24301;54.332;48.386;2023-03-14T13:48:49;99740.56;;;3.08;38.93
38530;BME280;24301;54.332;48.386;2023-03-14T13:51:18;99754.91;;;2.95;39.19
38530;BME280;24301;54.332;48.386;2023-03-14T13:53:47;99748.88;;;2.95;39.17
38530;BME280;24301;54.332;48.386;2023-03-14T13:56:23;99750.72;;;2.99;39.17
38530;BME280;24301;54.332;48.386;2023-03-14T13:58:49;99723.81;;;2.97;39.51
38530;BME280;24301;54.332;48.386;2023-03-14T14:01:26;99727.88;;;2.88;39.86
38530;BME280;24301;54.332;48.386;2023-03-14T14:03:55;99725.88;;;2.78;40.11
38530;BME280;24301;54.332;48.386;2023-03-14T14:08:54;99721.78;;;2.56;40.61
38530;BME280;24301;54.332;48.386;2023-03-14T14:14:13;99701.66;;;2.49;40.86
38530;BME280;24301;54.332;48.386;2023-03-14T14:16:43;99717.94;;;2.43;41.04
38530;BME280;24301;54.332;48.386;2023-03-14T14:19:11;99702.25;;;2.40;41.39
38530;BME280;24301;54.332;48.386;2023-03-14T14:21:38;99711.69;;;2.36;41.17
38530;BME280;24301;54.332;48.386;2023-03-14T14:24:04;99711.75;;;2.39;41.73
38530;BME280;24301;54.332;48.386;2023-03-14T14:26:31;99706.41;;;2.33;41.50